sensor_id;sensor_type;location;lat;lon;timestamp;P1;durP1;ratioP1;P2;durP2;ratioP2
71204;SDS011;58935;54.498;18.544;2022-07-21T00:00:41;4.50;;;3.90;;
71204;SDS011;58935;54.498;18.544;2022-07-21T00:03:09;5.70;;;3.50;;
71204;SDS011;58935;54.498;18.544;2022-07-21T00:05:35;5.40;;;4.30;;
71204;SDS011;58935;54.498;18.544;2022-07-21T00:08:05;4.40;;;4.00;;
71204;SDS011;58935;54.498;18.544;2022-07-21T00:10:30;4.80;;;4.00;;
71204;SDS011;58935;54.498;18.544;2022-07-21T00:12:56;5.50;;;3.60;;
71204;SDS011;58935;54.498;18.544;2022-07-21T00:15:25;4.80;;;4.00;;
71204;SDS011;58935;54.498;18.544;2022-07-21T00:17:54;6.70;;;4.30;;
71204;SDS011;58935;54.498;18.544;2022-07-21T00:20:20;5.60;;;3.90;;
71204;SDS011;58935;54.498;18.544;2022-07-21T00:22:48;5.00;;;3.90;;
71204;SDS011;58935;54.498;18.544;2022-07-21T00:25:16;4.70;;;3.90;;
71204;SDS011;58935;54.498;18.544;2022-07-21T00:27:42;5.00;;;4.50;;
71204;SDS011;58935;54.498;18.544;2022-07-21T00:30:09;5.10;;;4.00;;
71204;SDS011;58935;54.498;18.544;2022-07-21T00:32:38;4.40;;;3.90;;
71204;SDS011;58935;54.498;18.544;2022-07-21T00:35:05;7.10;;;3.60;;
71204;SDS011;58935;54.498;18.544;2022-07-21T00:37:32;6.70;;;4.10;;
71204;SDS011;58935;54.498;18.544;2022-07-21T00:39:59;4.90;;;3.80;;
71204;SDS011;58935;54.498;18.544;2022-07-21T00:42:29;7.90;;;4.50;;
71204;SDS011;58935;54.498;18.544;2022-07-21T00:44:59;5.00;;;4.40;;
71204;SDS011;58935;54.498;18.544;2022-07-21T00:47:30;4.40;;;4.00;;
71204;SDS011;58935;54.498;18.544;2022-07-21T00:49:58;7.80;;;4.50;;
71204;SDS011;58935;54.498;18.544;2022-07-21T00:52:25;5.20;;;4.20;;
71204;SDS011;58935;54.498;18.544;2022-07-21T00:54:52;4.90;;;3.70;;
71204;SDS011;58935;54.498;18.544;2022-07-21T00:57:20;4.70;;;4.20;;
71204;SDS011;58935;54.498;18.544;2022-07-21T00:59:45;4.70;;;4.00;;
71204;SDS011;58935;54.498;18.544;2022-07-21T01:02:11;4.70;;;3.60;;
71204;SDS011;58935;54.498;18.544;2022-07-21T01:04:40;5.10;;;4.30;;
71204;SDS011;58935;54.498;18.544;2022-07-21T01:07:06;5.90;;;3.90;;
71204;SDS011;58935;54.498;18.544;2022-07-21T01:09:34;4.20;;;3.80;;
71204;SDS011;58935;54.498;18.544;2022-07-21T01:12:01;5.90;;;4.40;;
71204;SDS011;58935;54.498;18.544;2022-07-21T01:14:27;7.10;;;4.30;;
71204;SDS011;58935;54.498;18.544;2022-07-21T01:16:55;6.00;;;4.30;;
71204;SDS011;58935;54.498;18.544;2022-07-21T01:19:20;5.30;;;4.30;;
71204;SDS011;58935;54.498;18.544;2022-07-21T01:21:47;6.30;;;4.70;;
71204;SDS011;58935;54.498;18.544;2022-07-21T01:24:14;4.50;;;4.10;;
71204;SDS011;58935;54.498;18.544;2022-07-21T01:26:45;8.00;;;4.60;;
71204;SDS011;58935;54.498;18.544;2022-07-21T01:29:12;5.00;;;4.50;;
71204;SDS011;58935;54.498;18.544;2022-07-21T01:31:40;5.70;;;4.40;;
71204;SDS011;58935;54.498;18.544;2022-07-21T01:34:08;4.50;;;4.10;;
71204;SDS011;58935;54.498;18.544;2022-07-21T01:36:35;6.50;;;4.40;;
71204;SDS011;58935;54.498;18.544;2022-07-21T01:39:01;5.70;;;4.30;;
71204;SDS011;58935;54.498;18.544;2022-07-21T01:41:30;6.10;;;4.40;;
71204;SDS011;58935;54.498;18.544;2022-07-21T01:44:02;5.60;;;4.00;;
71204;SDS011;58935;54.498;18.544;2022-07-21T01:46:31;6.50;;;4.30;;
71204;SDS011;58935;54.498;18.544;2022-07-21T01:48:58;5.10;;;4.10;;
71204;SDS011;58935;54.498;18.544;2022-07-21T01:51:24;9.20;;;4.30;;
71204;SDS011;58935;54.498;18.544;2022-07-21T01:53:51;5.10;;;4.00;;
71204;SDS011;58935;54.498;18.544;2022-07-21T01:56:21;4.60;;;4.20;;
71204;SDS011;58935;54.498;18.544;2022-07-21T01:58:50;5.50;;;4.10;;
71204;SDS011;58935;54.498;18.544;2022-07-21T02:01:18;5.30;;;4.00;;
71204;SDS011;58935;54.498;18.544;2022-07-21T02:03:45;6.30;;;4.40;;
71204;SDS011;58935;54.498;18.544;2022-07-21T02:06:12;4.90;;;4.50;;
71204;SDS011;58935;54.498;18.544;2022-07-21T02:08:40;5.40;;;4.90;;
71204;SDS011;58935;54.498;18.544;2022-07-21T02:11:08;6.30;;;4.40;;
71204;SDS011;58935;54.498;18.544;2022-07-21T02:13:37;6.90;;;4.90;;
71204;SDS011;58935;54.498;18.544;2022-07-21T02:16:03;8.30;;;4.70;;
71204;SDS011;58935;54.498;18.544;2022-07-21T02:18:29;5.90;;;4.50;;
71204;SDS011;58935;54.498;18.544;2022-07-21T02:20:55;5.50;;;4.40;;
71204;SDS011;58935;54.498;18.544;2022-07-21T02:23:22;5.40;;;4.60;;
71204;SDS011;58935;54.498;18.544;2022-07-21T02:25:49;10.40;;;4.70;;
71204;SDS011;58935;54.498;18.544;2022-07-21T02:28:20;5.50;;;4.60;;
71204;SDS011;58935;54.498;18.544;2022-07-21T02:30:46;6.60;;;4.30;;
71204;SDS011;58935;54.498;18.544;2022-07-21T02:33:12;6.90;;;4.40;;
71204;SDS011;58935;54.498;18.544;2022-07-21T02:35:39;5.40;;;4.40;;
71204;SDS011;58935;54.498;18.544;2022-07-21T02:38:06;5.80;;;4.70;;
71204;SDS011;58935;54.498;18.544;2022-07-21T02:40:37;6.00;;;4.20;;
71204;SDS011;58935;54.498;18.544;2022-07-21T02:43:04;5.80;;;4.70;;
71204;SDS011;58935;54.498;18.544;2022-07-21T02:45:33;6.60;;;4.90;;
71204;SDS011;58935;54.498;18.544;2022-07-21T02:48:04;6.90;;;4.70;;
71204;SDS011;58935;54.498;18.544;2022-07-21T02:50:34;6.30;;;4.40;;
71204;SDS011;58935;54.498;18.544;2022-07-21T02:53:04;7.80;;;4.50;;
71204;SDS011;58935;54.498;18.544;2022-07-21T02:55:31;7.30;;;4.80;;
71204;SDS011;58935;54.498;18.544;2022-07-21T03:00:41;5.20;;;4.80;;
71204;SDS011;58935;54.498;18.544;2022-07-21T03:03:13;5.80;;;4.70;;
71204;SDS011;58935;54.498;18.544;2022-07-21T03:05:38;5.00;;;4.50;;
71204;SDS011;58935;54.498;18.544;2022-07-21T03:08:05;5.60;;;4.70;;
71204;SDS011;58935;54.498;18.544;2022-07-21T03:10:32;6.00;;;4.40;;
71204;SDS011;58935;54.498;18.544;2022-07-21T03:12:58;10.30;;;5.20;;
71204;SDS011;58935;54.498;18.544;2022-07-21T03:15:26;6.20;;;4.90;;
71204;SDS011;58935;54.498;18.544;2022-07-21T03:17:53;5.00;;;4.60;;
71204;SDS011;58935;54.498;18.544;2022-07-21T03:20:22;5.80;;;4.50;;
71204;SDS011;58935;54.498;18.544;2022-07-21T03:22:49;5.60;;;4.80;;
71204;SDS011;58935;54.498;18.544;2022-07-21T03:25:14;5.20;;;4.70;;
71204;SDS011;58935;54.498;18.544;2022-07-21T03:27:41;7.80;;;5.10;;
71204;SDS011;58935;54.498;18.544;2022-07-21T03:30:11;6.60;;;5.00;;
71204;SDS011;58935;54.498;18.544;2022-07-21T03:32:38;10.50;;;4.40;;
71204;SDS011;58935;54.498;18.544;2022-07-21T03:35:05;6.50;;;4.60;;
71204;SDS011;58935;54.498;18.544;2022-07-21T03:37:32;7.00;;;4.40;;
71204;SDS011;58935;54.498;18.544;2022-07-21T03:40:05;7.40;;;4.60;;
71204;SDS011;58935;54.498;18.544;2022-07-21T03:42:31;6.70;;;4.70;;
71204;SDS011;58935;54.498;18.544;2022-07-21T03:44:59;6.10;;;4.60;;
71204;SDS011;58935;54.498;18.544;2022-07-21T03:47:24;5.20;;;4.50;;
71204;SDS011;58935;54.498;18.544;2022-07-21T03:49:49;4.70;;;4.30;;
71204;SDS011;58935;54.498;18.544;2022-07-21T03:52:15;5.70;;;4.50;;
71204;SDS011;58935;54.498;18.544;2022-07-21T03:54:40;4.90;;;4.40;;
71204;SDS011;58935;54.498;18.544;2022-07-21T03:57:06;6.80;;;4.90;;
71204;SDS011;58935;54.498;18.544;2022-07-21T03:59:34;6.80;;;5.10;;
71204;SDS011;58935;54.498;18.544;2022-07-21T04:01:59;9.50;;;5.70;;
71204;SDS011;58935;54.498;18.544;2022-07-21T04:04:25;7.80;;;5.80;;
71204;SDS011;58935;54.498;18.544;2022-07-21T04:06:52;7.60;;;5.30;;
71204;SDS011;58935;54.498;18.544;2022-07-21T04:09:18;5.50;;;4.90;;
71204;SDS011;58935;54.498;18.544;2022-07-21T04:11:44;6.40;;;4.80;;
71204;SDS011;58935;54.498;18.544;2022-07-21T04:14:14;9.00;;;5.60;;
71204;SDS011;58935;54.498;18.544;2022-07-21T04:16:40;6.70;;;5.00;;
71204;SDS011;58935;54.498;18.544;2022-07-21T04:19:05;8.60;;;5.50;;
71204;SDS011;58935;54.498;18.544;2022-07-21T04:21:31;7.60;;;5.20;;
71204;SDS011;58935;54.498;18.544;2022-07-21T04:23:56;7.20;;;5.20;;
71204;SDS011;58935;54.498;18.544;2022-07-21T04:26:21;8.60;;;5.40;;
71204;SDS011;58935;54.498;18.544;2022-07-21T04:28:47;6.50;;;5.10;;
71204;SDS011;58935;54.498;18.544;2022-07-21T04:31:12;7.90;;;4.70;;
71204;SDS011;58935;54.498;18.544;2022-07-21T04:33:37;6.30;;;5.20;;
71204;SDS011;58935;54.498;18.544;2022-07-21T04:36:03;7.80;;;4.90;;
71204;SDS011;58935;54.498;18.544;2022-07-21T04:38:30;5.10;;;4.60;;
71204;SDS011;58935;54.498;18.544;2022-07-21T04:40:55;5.60;;;4.70;;
71204;SDS011;58935;54.498;18.544;2022-07-21T04:43:21;5.30;;;4.50;;
71204;SDS011;58935;54.498;18.544;2022-07-21T04:45:46;7.20;;;4.40;;
71204;SDS011;58935;54.498;18.544;2022-07-21T04:48:14;10.20;;;4.70;;
71204;SDS011;58935;54.498;18.544;2022-07-21T04:50:39;10.00;;;4.80;;
71204;SDS011;58935;54.498;18.544;2022-07-21T04:53:07;7.70;;;4.90;;
71204;SDS011;58935;54.498;18.544;2022-07-21T04:55:34;8.00;;;4.40;;
71204;SDS011;58935;54.498;18.544;2022-07-21T04:58:00;7.00;;;4.80;;
71204;SDS011;58935;54.498;18.544;2022-07-21T05:00:26;4.70;;;4.20;;
71204;SDS011;58935;54.498;18.544;2022-07-21T05:02:55;5.90;;;4.40;;
71204;SDS011;58935;54.498;18.544;2022-07-21T05:05:23;9.90;;;4.30;;
71204;SDS011;58935;54.498;18.544;2022-07-21T05:07:48;7.80;;;4.90;;
71204;SDS011;58935;54.498;18.544;2022-07-21T05:10:17;10.00;;;4.70;;
71204;SDS011;58935;54.498;18.544;2022-07-21T05:12:43;8.10;;;4.50;;
71204;SDS011;58935;54.498;18.544;2022-07-21T05:15:10;7.60;;;5.20;;
71204;SDS011;58935;54.498;18.544;2022-07-21T05:17:36;8.40;;;5.20;;
71204;SDS011;58935;54.498;18.544;2022-07-21T05:20:04;10.70;;;5.00;;
71204;SDS011;58935;54.498;18.544;2022-07-21T05:22:30;6.50;;;4.50;;
71204;SDS011;58935;54.498;18.544;2022-07-21T05:24:56;5.30;;;4.50;;
71204;SDS011;58935;54.498;18.544;2022-07-21T05:27:21;10.40;;;5.40;;
71204;SDS011;58935;54.498;18.544;2022-07-21T05:29:46;5.50;;;4.20;;
71204;SDS011;58935;54.498;18.544;2022-07-21T05:32:12;7.70;;;4.40;;
71204;SDS011;58935;54.498;18.544;2022-07-21T05:34:37;7.60;;;4.10;;
71204;SDS011;58935;54.498;18.544;2022-07-21T05:37:03;6.30;;;4.70;;
71204;SDS011;58935;54.498;18.544;2022-07-21T05:39:29;10.20;;;4.30;;
71204;SDS011;58935;54.498;18.544;2022-07-21T05:41:57;4.70;;;4.00;;
71204;SDS011;58935;54.498;18.544;2022-07-21T05:44:22;7.10;;;4.10;;
71204;SDS011;58935;54.498;18.544;2022-07-21T05:46:47;4.80;;;4.20;;
71204;SDS011;58935;54.498;18.544;2022-07-21T05:49:13;11.00;;;4.10;;
71204;SDS011;58935;54.498;18.544;2022-07-21T05:51:38;9.10;;;4.20;;
71204;SDS011;58935;54.498;18.544;2022-07-21T05:54:04;9.30;;;3.90;;
71204;SDS011;58935;54.498;18.544;2022-07-21T05:56:34;4.90;;;4.10;;
71204;SDS011;58935;54.498;18.544;2022-07-21T05:58:59;8.40;;;3.60;;
71204;SDS011;58935;54.498;18.544;2022-07-21T06:01:25;5.40;;;4.30;;
71204;SDS011;58935;54.498;18.544;2022-07-21T06:03:50;9.30;;;3.60;;
71204;SDS011;58935;54.498;18.544;2022-07-21T06:06:19;5.60;;;4.30;;
71204;SDS011;58935;54.498;18.544;2022-07-21T06:08:47;9.30;;;4.30;;
71204;SDS011;58935;54.498;18.544;2022-07-21T06:11:20;7.20;;;4.10;;
71204;SDS011;58935;54.498;18.544;2022-07-21T06:13:48;8.90;;;3.90;;
71204;SDS011;58935;54.498;18.544;2022-07-21T06:16:16;8.20;;;3.90;;
71204;SDS011;58935;54.498;18.544;2022-07-21T06:18:44;12.60;;;3.80;;
71204;SDS011;58935;54.498;18.544;2022-07-21T06:21:09;8.10;;;3.80;;
71204;SDS011;58935;54.498;18.544;2022-07-21T06:23:35;6.00;;;3.90;;
71204;SDS011;58935;54.498;18.544;2022-07-21T06:26:00;8.20;;;4.40;;
71204;SDS011;58935;54.498;18.544;2022-07-21T06:28:28;9.30;;;4.20;;
71204;SDS011;58935;54.498;18.544;2022-07-21T06:30:53;14.10;;;4.30;;
71204;SDS011;58935;54.498;18.544;2022-07-21T06:33:20;5.60;;;4.00;;
71204;SDS011;58935;54.498;18.544;2022-07-21T06:35:46;9.70;;;3.90;;
71204;SDS011;58935;54.498;18.544;2022-07-21T06:38:13;7.30;;;3.80;;
71204;SDS011;58935;54.498;18.544;2022-07-21T06:40:41;6.60;;;3.80;;
71204;SDS011;58935;54.498;18.544;2022-07-21T06:43:07;5.10;;;3.60;;
71204;SDS011;58935;54.498;18.544;2022-07-21T06:45:37;13.00;;;4.60;;
71204;SDS011;58935;54.498;18.544;2022-07-21T06:48:04;8.30;;;3.70;;
71204;SDS011;58935;54.498;18.544;2022-07-21T06:50:31;6.10;;;3.80;;
71204;SDS011;58935;54.498;18.544;2022-07-21T06:53:00;5.70;;;3.60;;
71204;SDS011;58935;54.498;18.544;2022-07-21T06:55:26;6.00;;;3.80;;
71204;SDS011;58935;54.498;18.544;2022-07-21T06:57:56;14.10;;;3.70;;
71204;SDS011;58935;54.498;18.544;2022-07-21T07:00:22;9.60;;;4.40;;
71204;SDS011;58935;54.498;18.544;2022-07-21T07:02:52;8.60;;;4.20;;
71204;SDS011;58935;54.498;18.544;2022-07-21T07:05:17;10.00;;;3.70;;
71204;SDS011;58935;54.498;18.544;2022-07-21T07:07:45;11.10;;;3.90;;
71204;SDS011;58935;54.498;18.544;2022-07-21T07:10:13;8.80;;;3.60;;
71204;SDS011;58935;54.498;18.544;2022-07-21T07:12:39;9.10;;;3.70;;
71204;SDS011;58935;54.498;18.544;2022-07-21T07:15:07;5.10;;;3.90;;
71204;SDS011;58935;54.498;18.544;2022-07-21T07:17:33;7.60;;;3.50;;
71204;SDS011;58935;54.498;18.544;2022-07-21T07:19:59;9.40;;;4.30;;
71204;SDS011;58935;54.498;18.544;2022-07-21T07:22:24;7.70;;;3.60;;
71204;SDS011;58935;54.498;18.544;2022-07-21T07:24:50;4.60;;;3.60;;
71204;SDS011;58935;54.498;18.544;2022-07-21T07:27:16;4.20;;;3.50;;
71204;SDS011;58935;54.498;18.544;2022-07-21T07:29:41;8.70;;;3.40;;
71204;SDS011;58935;54.498;18.544;2022-07-21T07:32:07;8.30;;;3.30;;
71204;SDS011;58935;54.498;18.544;2022-07-21T07:34:32;7.00;;;3.70;;
71204;SDS011;58935;54.498;18.544;2022-07-21T07:36:57;6.20;;;3.50;;
71204;SDS011;58935;54.498;18.544;2022-07-21T07:39:23;4.50;;;3.60;;
71204;SDS011;58935;54.498;18.544;2022-07-21T07:41:48;7.60;;;3.60;;
71204;SDS011;58935;54.498;18.544;2022-07-21T07:44:16;5.00;;;4.20;;
71204;SDS011;58935;54.498;18.544;2022-07-21T07:46:41;9.90;;;3.60;;
71204;SDS011;58935;54.498;18.544;2022-07-21T07:49:08;5.20;;;3.70;;
71204;SDS011;58935;54.498;18.544;2022-07-21T07:51:33;8.80;;;3.80;;
71204;SDS011;58935;54.498;18.544;2022-07-21T07:53:59;7.10;;;3.50;;
71204;SDS011;58935;54.498;18.544;2022-07-21T07:56:30;6.10;;;3.40;;
71204;SDS011;58935;54.498;18.544;2022-07-21T07:58:55;4.00;;;3.60;;
71204;SDS011;58935;54.498;18.544;2022-07-21T08:01:21;5.50;;;3.70;;
71204;SDS011;58935;54.498;18.544;2022-07-21T08:03:46;8.40;;;3.50;;
71204;SDS011;58935;54.498;18.544;2022-07-21T08:06:12;5.60;;;3.40;;
71204;SDS011;58935;54.498;18.544;2022-07-21T08:08:38;6.50;;;3.80;;
71204;SDS011;58935;54.498;18.544;2022-07-21T08:11:04;6.20;;;3.70;;
71204;SDS011;58935;54.498;18.544;2022-07-21T08:13:29;7.60;;;3.90;;
71204;SDS011;58935;54.498;18.544;2022-07-21T08:15:55;7.70;;;3.80;;
71204;SDS011;58935;54.498;18.544;2022-07-21T08:18:21;12.00;;;3.30;;
71204;SDS011;58935;54.498;18.544;2022-07-21T08:20:47;6.70;;;3.80;;
71204;SDS011;58935;54.498;18.544;2022-07-21T08:23:13;3.90;;;3.50;;
71204;SDS011;58935;54.498;18.544;2022-07-21T08:25:40;4.70;;;3.80;;
71204;SDS011;58935;54.498;18.544;2022-07-21T08:28:06;3.80;;;3.30;;
71204;SDS011;58935;54.498;18.544;2022-07-21T08:30:32;9.00;;;3.30;;
71204;SDS011;58935;54.498;18.544;2022-07-21T08:32:58;6.60;;;4.00;;
71204;SDS011;58935;54.498;18.544;2022-07-21T08:35:24;6.10;;;3.60;;
71204;SDS011;58935;54.498;18.544;2022-07-21T08:37:55;8.70;;;3.90;;
71204;SDS011;58935;54.498;18.544;2022-07-21T08:40:24;3.90;;;3.40;;
71204;SDS011;58935;54.498;18.544;2022-07-21T08:42:52;4.30;;;3.40;;
71204;SDS011;58935;54.498;18.544;2022-07-21T08:45:19;6.60;;;3.20;;
71204;SDS011;58935;54.498;18.544;2022-07-21T08:47:51;9.50;;;3.70;;
71204;SDS011;58935;54.498;18.544;2022-07-21T08:50:19;20.60;;;3.50;;
71204;SDS011;58935;54.498;18.544;2022-07-21T08:52:47;8.60;;;3.50;;
71204;SDS011;58935;54.498;18.544;2022-07-21T08:55:13;5.30;;;3.40;;
71204;SDS011;58935;54.498;18.544;2022-07-21T08:57:40;7.80;;;3.80;;
71204;SDS011;58935;54.498;18.544;2022-07-21T09:00:07;9.20;;;3.20;;
71204;SDS011;58935;54.498;18.544;2022-07-21T09:02:35;5.00;;;3.30;;
71204;SDS011;58935;54.498;18.544;2022-07-21T09:05:04;4.20;;;3.40;;
71204;SDS011;58935;54.498;18.544;2022-07-21T09:10:07;5.40;;;3.40;;
71204;SDS011;58935;54.498;18.544;2022-07-21T09:12:48;3.90;;;3.30;;
71204;SDS011;58935;54.498;18.544;2022-07-21T09:15:19;3.30;;;3.00;;
71204;SDS011;58935;54.498;18.544;2022-07-21T09:20:35;7.30;;;3.40;;
71204;SDS011;58935;54.498;18.544;2022-07-21T09:23:18;4.10;;;3.20;;
71204;SDS011;58935;54.498;18.544;2022-07-21T09:25:48;3.40;;;3.10;;
71204;SDS011;58935;54.498;18.544;2022-07-21T09:28:19;4.50;;;4.10;;
71204;SDS011;58935;54.498;18.544;2022-07-21T09:30:57;5.10;;;3.70;;
71204;SDS011;58935;54.498;18.544;2022-07-21T09:33:31;7.50;;;3.60;;
71204;SDS011;58935;54.498;18.544;2022-07-21T09:36:05;6.60;;;3.80;;
71204;SDS011;58935;54.498;18.544;2022-07-21T09:38:35;6.00;;;3.50;;
71204;SDS011;58935;54.498;18.544;2022-07-21T09:41:06;6.40;;;3.40;;
71204;SDS011;58935;54.498;18.544;2022-07-21T09:43:38;4.70;;;3.40;;
71204;SDS011;58935;54.498;18.544;2022-07-21T09:46:10;4.40;;;3.70;;
71204;SDS011;58935;54.498;18.544;2022-07-21T09:48:42;11.00;;;3.80;;
71204;SDS011;58935;54.498;18.544;2022-07-21T09:53:50;8.90;;;3.70;;
71204;SDS011;58935;54.498;18.544;2022-07-21T09:56:18;9.20;;;4.20;;
71204;SDS011;58935;54.498;18.544;2022-07-21T09:58:46;9.50;;;4.10;;
71204;SDS011;58935;54.498;18.544;2022-07-21T10:01:14;6.30;;;3.70;;
71204;SDS011;58935;54.498;18.544;2022-07-21T10:03:43;7.60;;;4.00;;
71204;SDS011;58935;54.498;18.544;2022-07-21T10:06:11;8.50;;;4.20;;
71204;SDS011;58935;54.498;18.544;2022-07-21T10:08:39;10.30;;;3.70;;
71204;SDS011;58935;54.498;18.544;2022-07-21T10:11:08;9.50;;;4.10;;
71204;SDS011;58935;54.498;18.544;2022-07-21T10:13:37;4.90;;;3.90;;
71204;SDS011;58935;54.498;18.544;2022-07-21T10:16:10;6.70;;;3.80;;
71204;SDS011;58935;54.498;18.544;2022-07-21T10:18:54;8.40;;;3.60;;
71204;SDS011;58935;54.498;18.544;2022-07-21T10:24:10;11.40;;;4.20;;
71204;SDS011;58935;54.498;18.544;2022-07-21T10:32:09;8.00;;;3.80;;
71204;SDS011;58935;54.498;18.544;2022-07-21T10:34:36;6.90;;;3.60;;
71204;SDS011;58935;54.498;18.544;2022-07-21T10:37:01;5.20;;;4.00;;
71204;SDS011;58935;54.498;18.544;2022-07-21T10:39:27;7.40;;;5.10;;
71204;SDS011;58935;54.498;18.544;2022-07-21T10:41:57;8.20;;;3.50;;
71204;SDS011;58935;54.498;18.544;2022-07-21T10:47:17;9.20;;;4.20;;
71204;SDS011;58935;54.498;18.544;2022-07-21T10:49:48;4.30;;;3.00;;
71204;SDS011;58935;54.498;18.544;2022-07-21T10:57:26;9.40;;;3.70;;
71204;SDS011;58935;54.498;18.544;2022-07-21T11:00:17;5.90;;;3.60;;
71204;SDS011;58935;54.498;18.544;2022-07-21T11:02:47;7.50;;;3.20;;
71204;SDS011;58935;54.498;18.544;2022-07-21T11:05:15;3.20;;;2.90;;
71204;SDS011;58935;54.498;18.544;2022-07-21T11:08:07;5.50;;;3.30;;
71204;SDS011;58935;54.498;18.544;2022-07-21T11:10:32;15.00;;;3.40;;
71204;SDS011;58935;54.498;18.544;2022-07-21T11:12:58;5.10;;;3.30;;
71204;SDS011;58935;54.498;18.544;2022-07-21T11:17:58;3.60;;;3.30;;
71204;SDS011;58935;54.498;18.544;2022-07-21T11:20:23;11.50;;;3.20;;
71204;SDS011;58935;54.498;18.544;2022-07-21T11:22:53;10.30;;;3.50;;
71204;SDS011;58935;54.498;18.544;2022-07-21T11:25:19;4.60;;;3.40;;
71204;SDS011;58935;54.498;18.544;2022-07-21T11:27:45;6.50;;;3.50;;
71204;SDS011;58935;54.498;18.544;2022-07-21T11:30:11;10.00;;;3.30;;
71204;SDS011;58935;54.498;18.544;2022-07-21T11:32:37;8.20;;;3.20;;
71204;SDS011;58935;54.498;18.544;2022-07-21T11:35:05;7.10;;;3.20;;
71204;SDS011;58935;54.498;18.544;2022-07-21T11:37:35;5.70;;;3.10;;
71204;SDS011;58935;54.498;18.544;2022-07-21T11:40:07;6.80;;;3.50;;
71204;SDS011;58935;54.498;18.544;2022-07-21T11:42:38;8.70;;;3.30;;
71204;SDS011;58935;54.498;18.544;2022-07-21T11:45:05;9.40;;;3.60;;
71204;SDS011;58935;54.498;18.544;2022-07-21T11:47:33;8.10;;;3.60;;
71204;SDS011;58935;54.498;18.544;2022-07-21T11:50:01;8.10;;;3.40;;
71204;SDS011;58935;54.498;18.544;2022-07-21T11:52:32;15.90;;;3.60;;
71204;SDS011;58935;54.498;18.544;2022-07-21T11:55:03;10.50;;;3.40;;
71204;SDS011;58935;54.498;18.544;2022-07-21T11:57:31;8.10;;;3.20;;
71204;SDS011;58935;54.498;18.544;2022-07-21T11:59:59;8.00;;;3.60;;
71204;SDS011;58935;54.498;18.544;2022-07-21T12:02:28;5.10;;;3.30;;
71204;SDS011;58935;54.498;18.544;2022-07-21T12:05:00;10.40;;;3.30;;
71204;SDS011;58935;54.498;18.544;2022-07-21T12:07:33;7.50;;;3.20;;
71204;SDS011;58935;54.498;18.544;2022-07-21T12:10:05;12.00;;;3.30;;
71204;SDS011;58935;54.498;18.544;2022-07-21T12:12:38;9.10;;;4.00;;
71204;SDS011;58935;54.498;18.544;2022-07-21T12:15:10;5.20;;;3.20;;
71204;SDS011;58935;54.498;18.544;2022-07-21T12:17:44;8.10;;;3.60;;
71204;SDS011;58935;54.498;18.544;2022-07-21T12:20:15;5.70;;;3.50;;
71204;SDS011;58935;54.498;18.544;2022-07-21T12:22:50;5.30;;;3.20;;
71204;SDS011;58935;54.498;18.544;2022-07-21T12:25:17;3.60;;;3.20;;
71204;SDS011;58935;54.498;18.544;2022-07-21T12:27:54;10.40;;;3.40;;
71204;SDS011;58935;54.498;18.544;2022-07-21T12:33:04;6.60;;;3.00;;
71204;SDS011;58935;54.498;18.544;2022-07-21T12:35:37;3.70;;;3.40;;
71204;SDS011;58935;54.498;18.544;2022-07-21T12:38:10;7.80;;;3.10;;
71204;SDS011;58935;54.498;18.544;2022-07-21T12:40:41;6.80;;;3.60;;
71204;SDS011;58935;54.498;18.544;2022-07-21T12:45:45;7.40;;;3.20;;
71204;SDS011;58935;54.498;18.544;2022-07-21T12:48:24;8.50;;;3.70;;
71204;SDS011;58935;54.498;18.544;2022-07-21T12:50:57;4.60;;;3.20;;
71204;SDS011;58935;54.498;18.544;2022-07-21T12:53:29;8.70;;;3.10;;
71204;SDS011;58935;54.498;18.544;2022-07-21T12:55:56;6.80;;;2.90;;
71204;SDS011;58935;54.498;18.544;2022-07-21T12:58:24;10.70;;;3.10;;
71204;SDS011;58935;54.498;18.544;2022-07-21T13:00:50;9.30;;;3.20;;
71204;SDS011;58935;54.498;18.544;2022-07-21T13:03:15;5.60;;;3.10;;
71204;SDS011;58935;54.498;18.544;2022-07-21T13:05:43;12.30;;;3.10;;
71204;SDS011;58935;54.498;18.544;2022-07-21T13:08:11;4.50;;;2.80;;
71204;SDS011;58935;54.498;18.544;2022-07-21T13:10:37;11.90;;;3.40;;
71204;SDS011;58935;54.498;18.544;2022-07-21T13:13:03;9.10;;;3.10;;
71204;SDS011;58935;54.498;18.544;2022-07-21T13:15:33;6.00;;;3.00;;
71204;SDS011;58935;54.498;18.544;2022-07-21T13:17:58;9.40;;;3.40;;
71204;SDS011;58935;54.498;18.544;2022-07-21T13:20:26;7.00;;;4.00;;
71204;SDS011;58935;54.498;18.544;2022-07-21T13:22:52;7.00;;;2.80;;
71204;SDS011;58935;54.498;18.544;2022-07-21T13:25:17;7.50;;;3.00;;
71204;SDS011;58935;54.498;18.544;2022-07-21T13:27:45;5.90;;;3.10;;
71204;SDS011;58935;54.498;18.544;2022-07-21T13:30:13;4.30;;;3.40;;
71204;SDS011;58935;54.498;18.544;2022-07-21T13:32:40;9.10;;;3.10;;
71204;SDS011;58935;54.498;18.544;2022-07-21T13:35:06;11.20;;;3.30;;
71204;SDS011;58935;54.498;18.544;2022-07-21T13:37:33;9.90;;;2.90;;
71204;SDS011;58935;54.498;18.544;2022-07-21T13:39:59;5.90;;;3.10;;
71204;SDS011;58935;54.498;18.544;2022-07-21T13:42:27;5.40;;;2.80;;
71204;SDS011;58935;54.498;18.544;2022-07-21T13:44:55;4.20;;;2.80;;
71204;SDS011;58935;54.498;18.544;2022-07-21T13:47:20;5.80;;;2.70;;
71204;SDS011;58935;54.498;18.544;2022-07-21T13:49:45;6.50;;;2.90;;
71204;SDS011;58935;54.498;18.544;2022-07-21T13:52:13;5.40;;;2.80;;
71204;SDS011;58935;54.498;18.544;2022-07-21T13:54:39;4.10;;;2.90;;
71204;SDS011;58935;54.498;18.544;2022-07-21T13:57:05;3.70;;;3.10;;
71204;SDS011;58935;54.498;18.544;2022-07-21T13:59:30;4.60;;;2.90;;
71204;SDS011;58935;54.498;18.544;2022-07-21T14:01:56;11.60;;;3.00;;
71204;SDS011;58935;54.498;18.544;2022-07-21T14:04:22;8.10;;;3.20;;
71204;SDS011;58935;54.498;18.544;2022-07-21T14:06:48;5.30;;;3.20;;
71204;SDS011;58935;54.498;18.544;2022-07-21T14:09:15;6.90;;;3.00;;
71204;SDS011;58935;54.498;18.544;2022-07-21T14:11:42;4.10;;;3.20;;
71204;SDS011;58935;54.498;18.544;2022-07-21T14:14:08;9.00;;;3.00;;
71204;SDS011;58935;54.498;18.544;2022-07-21T14:16:34;5.70;;;2.90;;
71204;SDS011;58935;54.498;18.544;2022-07-21T14:19:00;9.50;;;3.10;;
71204;SDS011;58935;54.498;18.544;2022-07-21T14:21:28;10.20;;;3.00;;
71204;SDS011;58935;54.498;18.544;2022-07-21T14:23:53;6.60;;;3.20;;
71204;SDS011;58935;54.498;18.544;2022-07-21T14:26:22;6.80;;;3.20;;
71204;SDS011;58935;54.498;18.544;2022-07-21T14:28:49;6.70;;;3.00;;
71204;SDS011;58935;54.498;18.544;2022-07-21T14:31:14;9.20;;;3.00;;
71204;SDS011;58935;54.498;18.544;2022-07-21T14:33:42;10.90;;;3.00;;
71204;SDS011;58935;54.498;18.544;2022-07-21T14:36:10;5.90;;;3.00;;
71204;SDS011;58935;54.498;18.544;2022-07-21T14:38:38;6.50;;;3.30;;
71204;SDS011;58935;54.498;18.544;2022-07-21T14:41:03;9.60;;;2.90;;
71204;SDS011;58935;54.498;18.544;2022-07-21T14:43:29;5.00;;;2.90;;
71204;SDS011;58935;54.498;18.544;2022-07-21T14:45:54;6.80;;;2.90;;
71204;SDS011;58935;54.498;18.544;2022-07-21T14:48:19;5.80;;;3.00;;
71204;SDS011;58935;54.498;18.544;2022-07-21T14:50:45;8.10;;;3.60;;
71204;SDS011;58935;54.498;18.544;2022-07-21T14:53:10;7.00;;;2.90;;
71204;SDS011;58935;54.498;18.544;2022-07-21T14:55:36;4.30;;;3.20;;
71204;SDS011;58935;54.498;18.544;2022-07-21T14:58:02;6.90;;;3.00;;
71204;SDS011;58935;54.498;18.544;2022-07-21T15:00:27;5.80;;;2.70;;
71204;SDS011;58935;54.498;18.544;2022-07-21T15:02:57;6.60;;;3.00;;
71204;SDS011;58935;54.498;18.544;2022-07-21T15:05:23;6.20;;;3.50;;
71204;SDS011;58935;54.498;18.544;2022-07-21T15:07:51;7.70;;;2.90;;
71204;SDS011;58935;54.498;18.544;2022-07-21T15:10:19;7.40;;;3.10;;